Time;durP1;ratioP1;P1;durP2;ratioP2;P2;SDS_P1;SDS_P2;PMS_P1;PMS_P2;Temp;Humidity;BMP_temperature;BMP_pressure;BME280_temperature;BME280_humidity;BME280_pressure;Samples;Min_cycle;Max_cycle;Signal;HPM_P1;HPM_P2
2022/06/28 00:00:06;;;;;;;4.90;1.88;;;;;;;16.59;100.00;100908.34;20822227;28;20104;-70
2022/06/28 00:10:10;;;;;;;3.90;2.00;;;;;;;16.44;100.00;100907.06;20822005;28;20049;-69
2022/06/28 00:20:11;;;;;;;4.88;1.70;;;;;;;16.28;100.00;100914.56;20821872;28;20053;-70
2022/06/28 00:30:13;;;;;;;7.00;2.15;;;;;;;16.22;100.00;100903.34;20821240;28;20478;-71
2022/06/28 00:40:15;;;;;;;4.78;2.00;;;;;;;16.06;100.00;100901.19;20819596;28;20064;-70
2022/06/28 00:50:18;;;;;;;5.07;2.03;;;;;;;15.93;100.00;100891.03;20818975;28;20049;-70
2022/06/28 01:00:19;;;;;;;3.88;1.92;;;;;;;15.83;100.00;100895.72;20818714;28;20049;-72
2022/06/28 01:10:23;;;;;;;7.15;2.47;;;;;;;15.65;100.00;100911.16;20818746;28;20058;-70
2022/06/28 01:20:24;;;;;;;4.18;2.17;;;;;;;15.60;100.00;100915.69;20817177;28;20056;-70
2022/06/28 01:30:26;;;;;;;5.60;2.42;;;;;;;15.43;100.00;100912.66;20816403;28;20054;-71
2022/06/28 01:40:28;;;;;;;5.88;2.30;;;;;;;15.30;100.00;100919.19;20816489;28;20049;-70
2022/06/28 01:50:29;;;;;;;5.95;2.70;;;;;;;15.18;100.00;100930.91;20824654;28;20100;-72
2022/06/28 02:00:31;;;;;;;6.70;2.30;;;;;;;15.02;100.00;100933.09;20831328;28;20120;-71
2022/06/28 02:10:33;;;;;;;8.18;2.90;;;;;;;14.78;100.00;100936.34;20831209;28;20041;-71
2022/06/28 02:20:34;;;;;;;4.32;2.40;;;;;;;14.55;100.00;100935.09;20830494;28;20053;-71
2022/06/28 02:30:36;;;;;;;3.72;2.15;;;;;;;14.43;100.00;100942.41;20829588;28;20045;-71
2022/06/28 02:40:37;;;;;;;4.00;2.20;;;;;;;14.42;100.00;100952.09;20828978;28;20395;-72
2022/06/28 02:50:39;;;;;;;6.55;2.20;;;;;;;14.22;100.00;100970.94;20828157;28;20479;-71
2022/06/28 03:00:41;;;;;;;5.55;2.20;;;;;;;14.16;100.00;100972.84;20826953;28;20115;-71
2022/06/28 03:10:42;;;;;;;6.85;2.03;;;;;;;14.04;100.00;100980.13;20826699;28;20049;-72
2022/06/28 03:20:44;;;;;;;4.25;1.67;;;;;;;13.97;100.00;100975.88;20825867;28;20136;-70
2022/06/28 03:30:46;;;;;;;6.38;2.70;;;;;;;13.92;100.00;100971.59;20824645;28;20458;-72
2022/06/28 03:40:47;;;;;;;7.18;2.40;;;;;;;13.79;100.00;100992.88;20824451;28;20486;-71
2022/06/28 03:50:49;;;;;;;5.03;2.63;;;;;;;13.80;100.00;101012.22;20823925;28;20588;-72
2022/06/28 04:00:50;;;;;;;7.80;2.70;;;;;;;13.86;100.00;100993.66;20822661;28;20143;-72
2022/06/28 04:21:15;;;;;;;5.10;2.55;;;;;;;14.06;100.00;101012.53;20904715;28;20072;-70
2022/06/28 04:31:17;;;;;;;9.00;3.57;;;;;;;14.38;100.00;101008.38;20902695;28;20052;-74
2022/06/28 04:41:23;;;;;;;6.88;2.72;;;;;;;16.02;100.00;100992.00;20902964;28;20118;-74
2022/06/28 04:51:25;;;;;;;5.18;2.40;;;;;;;16.43;100.00;100995.16;20902925;28;20053;-73
2022/06/28 05:01:27;;;;;;;7.25;2.35;;;;;;;15.65;100.00;101000.94;20901107;28;20053;-73
2022/06/28 05:11:29;;;;;;;9.45;2.53;;;;;;;15.48;100.00;101008.41;20884892;28;20414;-72
2022/06/28 05:21:30;;;;;;;7.65;2.88;;;;;;;15.46;100.00;101006.69;20820050;28;20417;-72
2022/06/28 05:31:32;;;;;;;9.00;3.03;;;;;;;15.78;100.00;101006.75;20834241;28;20041;-73
2022/06/28 05:41:34;;;;;;;10.48;3.60;;;;;;;16.16;100.00;100988.94;20833595;28;20387;-73
2022/06/28 05:51:35;;;;;;;7.03;3.15;;;;;;;16.28;100.00;100985.94;20833599;28;20061;-72
2022/06/28 06:01:37;;;;;;;6.05;3.83;;;;;;;16.48;100.00;100980.06;20832881;28;20049;-70
2022/06/28 06:11:39;;;;;;;9.10;3.42;;;;;;;16.66;100.00;100976.81;20832964;28;20046;-71
2022/06/28 06:21:40;;;;;;;9.75;3.85;;;;;;;16.91;100.00;100970.75;20831411;28;20052;-71
2022/06/28 06:31:41;;;;;;;7.07;3.25;;;;;;;17.19;100.00;100971.56;20828565;28;20560;-70
2022/06/28 06:41:44;;;;;;;5.93;3.13;;;;;;;17.58;100.00;100957.00;20861769;28;20508;-70
2022/06/28 06:51:48;;;;;;;7.95;3.03;;;;;;;17.89;100.00;100954.16;20908597;28;20055;-70
2022/06/28 07:01:49;;;;;;;7.07;2.30;;;;;;;18.11;100.00;100939.19;20901901;28;20068;-72
2022/06/28 07:11:51;;;;;;;4.28;1.65;;;;;;;18.49;100.00;100923.53;20897231;28;20045;-72
2022/06/28 07:21:52;;;;;;;5.70;1.80;;;;;;;18.44;100.00;100922.84;20898624;28;20064;-71
2022/06/28 07:31:54;;;;;;;3.10;1.30;;;;;;;18.51;98.55;100913.75;20900792;28;20049;-71
2022/06/28 07:41:55;;;;;;;6.05;1.52;;;;;;;18.78;99.07;100910.91;20898743;28;20068;-73
2022/06/28 08:02:17;;;;;;;4.55;1.50;;;;;;;19.32;90.85;100925.44;20877822;28;20056;-71
2022/06/28 08:12:18;;;;;;;4.10;1.52;;;;;;;19.57;89.57;100915.44;20897002;28;20103;-72
2022/06/28 08:22:20;;;;;;;2.05;1.13;;;;;;;19.91;78.40;100893.53;20896288;28;20055;-71
2022/06/28 08:32:23;;;;;;;5.18;1.48;;;;;;;20.07;79.53;100864.44;20895144;28;20900;-71
2022/06/28 08:42:26;;;;;;;5.00;1.58;;;;;;;20.51;77.63;100850.81;20895259;28;20065;-71
2022/06/28 08:52:32;;;;;;;4.43;1.27;;;;;;;20.67;79.46;100846.44;20894422;28;20049;-72
2022/06/28 09:02:34;;;;;;;4.72;1.55;;;;;;;20.98;70.02;100844.84;20893609;28;20094;-71
2022/06/28 09:12:36;;;;;;;3.10;1.35;;;;;;;21.03;63.91;100834.84;20893445;28;20049;-72
2022/06/28 09:22:41;;;;;;;3.40;1.40;;;;;;;21.60;67.59;100822.03;20893908;28;20053;-72
2022/06/28 09:32:43;;;;;;;6.07;1.70;;;;;;;21.60;60.89;100811.38;20891678;28;20087;-72
2022/06/28 09:42:47;;;;;;;2.90;0.93;;;;;;;22.02;59.29;100807.25;20891630;28;20052;-70
2022/06/28 09:52:49;;;;;;;5.00;1.20;;;;;;;22.50;55.07;100797.41;20891374;28;20095;-71
2022/06/28 10:02:55;;;;;;;3.83;1.02;;;;;;;22.24;53.07;100797.13;20890650;28;20134;-71
2022/06/28 10:23:27;;;;;;;2.40;1.02;;;;;;;22.81;51.38;100784.91;20905623;28;20049;-71
2022/06/28 10:33:42;;;;;;;3.92;1.33;;;;;;;22.91;51.07;100759.41;20904566;28;20080;-68
2022/06/28 10:43:45;;;;;;;6.57;1.60;;;;;;;22.81;52.30;100763.56;20902537;28;20083;-68
2022/06/28 10:54:02;;;;;;;3.50;1.20;;;;;;;22.98;52.28;100747.38;20904598;28;20045;-68
2022/06/28 11:04:18;;;;;;;3.40;1.30;;;;;;;23.58;53.43;100716.88;20902322;28;20395;-68
2022/06/28 11:14:30;;;;;;;4.82;1.23;;;;;;;23.43;50.51;100686.66;20901554;28;20049;-68
2022/06/28 11:24:43;;;;;;;5.13;1.17;;;;;;;23.62;49.25;100665.78;20900685;28;20440;-68
2022/06/28 11:35:12;;;;;;;4.80;0.90;;;;;;;23.47;47.56;100637.38;20900433;28;20070;-68
2022/06/28 11:45:15;;;;;;;2.78;1.10;;;;;;;23.91;45.52;100650.50;20899253;28;20052;-68
2022/06/28 11:55:18;;;;;;;3.47;1.20;;;;;;;24.02;44.77;100631.06;20882270;28;20049;-67
2022/06/28 12:05:33;;;;;;;2.87;1.20;;;;;;;23.84;44.75;100624.28;20816106;28;20522;-67
2022/06/28 12:15:35;;;;;;;2.90;1.08;;;;;;;24.37;45.99;100623.28;20896027;28;20049;-68
2022/06/28 12:25:36;;;;;;;2.85;0.90;;;;;;;24.23;42.33;100613.50;20896512;28;20063;-69
2022/06/28 12:35:39;;;;;;;4.32;1.08;;;;;;;24.53;40.81;100577.59;20895221;28;20075;-69
2022/06/28 12:45:41;;;;;;;4.53;0.95;;;;;;;24.89;42.56;100573.22;20895081;28;20049;-68
2022/06/28 12:55:43;;;;;;;3.42;0.98;;;;;;;24.95;43.26;100564.72;20896215;28;20457;-68
2022/06/28 13:05:44;;;;;;;2.17;0.80;;;;;;;24.93;46.05;100548.78;20895044;28;20095;-69
2022/06/28 13:15:47;;;;;;;1.52;0.80;;;;;;;25.53;40.45;100533.59;20893881;28;20064;-68
2022/06/28 13:25:48;;;;;;;3.30;0.97;;;;;;;25.27;39.82;100517.69;20894002;28;20052;-69
2022/06/28 13:35:50;;;;;;;2.13;0.80;;;;;;;25.79;40.25;100476.16;20893950;28;20464;-68
2022/06/28 13:45:52;;;;;;;1.48;0.73;;;;;;;25.70;39.72;100473.31;20900992;28;20501;-69
2022/06/28 13:55:53;;;;;;;3.00;0.95;;;;;;;26.02;39.80;100470.84;20909836;28;20551;-69
2022/06/28 14:05:55;;;;;;;2.38;0.80;;;;;;;26.08;39.29;100463.16;20907227;28;20064;-68
2022/06/28 14:15:56;;;;;;;3.30;0.80;;;;;;;26.53;37.64;100467.66;20907705;28;20053;-67
2022/06/28 14:25:58;;;;;;;3.30;0.90;;;;;;;26.65;40.24;100445.16;20906880;28;20064;-67
2022/06/28 14:36:00;;;;;;;3.38;1.00;;;;;;;26.99;36.83;100447.75;20905439;28;20048;-68
2022/06/28 14:46:01;;;;;;;6.38;1.38;;;;;;;27.08;40.08;100431.72;20903073;28;20124;-68
2022/06/28 14:56:03;;;;;;;3.97;1.35;;;;;;;26.55;38.78;100418.22;20903371;28;20072;-67
2022/06/28 15:06:05;;;;;;;2.95;0.95;;;;;;;26.73;39.38;100407.75;20901796;28;20468;-67
2022/06/28 15:16:07;;;;;;;2.97;0.60;;;;;;;26.84;39.31;100402.38;20901615;28;20493;-68
2022/06/28 15:36:29;;;;;;;3.72;1.30;;;;;;;26.64;40.59;100367.38;20900698;28;20048;-68
2022/06/28 15:46:30;;;;;;;2.20;0.70;;;;;;;26.57;37.94;100356.31;20899366;28;20401;-68
2022/06/28 15:56:32;;;;;;;5.90;0.90;;;;;;;26.94;40.08;100364.81;20899808;28;20095;-68
2022/06/28 16:06:33;;;;;;;8.30;4.55;;;;;;;27.04;40.98;100332.63;20897621;28;20533;-68
2022/06/28 16:16:35;;;;;;;2.42;1.00;;;;;;;27.10;41.47;100322.25;20913983;22;20045;-79
2022/06/28 16:26:37;;;;;;;3.75;0.90;;;;;;;26.67;43.50;100326.84;20902952;28;20140;-78
2022/06/28 16:36:38;;;;;;;2.13;0.82;;;;;;;26.91;41.51;100323.91;20903727;28;20049;-78
2022/06/28 16:46:40;;;;;;;2.13;0.77;;;;;;;26.41;43.03;100326.31;20896576;28;20053;-78
2022/06/28 16:56:41;;;;;;;2.00;1.13;;;;;;;26.46;46.64;100316.09;20897593;28;20489;-78
2022/06/28 17:17:03;;;;;;;2.75;0.80;;;;;;;25.66;45.95;100276.94;20895611;28;20147;-78
2022/06/28 17:27:05;;;;;;;3.72;1.10;;;;;;;25.43;49.87;100277.94;20889369;28;20056;-81
2022/06/28 17:37:07;;;;;;;3.05;0.90;;;;;;;25.12;52.21;100269.63;20888655;28;20413;-79
2022/06/28 17:47:09;;;;;;;2.03;0.90;;;;;;;25.03;52.65;100268.50;20896128;28;20052;-78
2022/06/28 17:57:11;;;;;;;2.25;0.82;;;;;;;24.92;53.51;100256.94;20894579;28;20072;-79
2022/06/28 18:07:12;;;;;;;3.47;1.20;;;;;;;24.78;55.39;100236.56;20880435;28;20051;-78
2022/06/28 18:17:14;;;;;;;5.15;1.50;;;;;;;24.75;57.81;100245.69;20902127;28;20049;-79
2022/06/28 18:37:21;;;;;;;3.03;1.10;;;;;;;24.22;61.86;100242.56;20658664;28;20053;-78
2022/06/28 18:47:23;;;;;;;3.30;1.00;;;;;;;24.03;66.80;100243.09;20740339;28;20054;-78
2022/06/28 18:57:24;;;;;;;4.05;1.33;;;;;;;23.73;66.29;100227.50;20740355;28;20446;-77
2022/06/28 19:07:26;;;;;;;3.25;1.00;;;;;;;23.46;73.79;100232.97;20737994;28;20050;-77
2022/06/28 19:17:28;;;;;;;3.22;1.10;;;;;;;23.42;74.76;100241.31;20803848;28;20075;-79
2022/06/28 19:27:29;;;;;;;4.80;1.25;;;;;;;23.38;72.72;100240.72;20819420;28;20053;-79
2022/06/28 19:37:31;;;;;;;2.63;1.05;;;;;;;22.99;78.56;100234.53;20803264;28;20060;-78
2022/06/28 19:47:33;;;;;;;3.65;1.17;;;;;;;22.88;80.97;100252.25;20733521;28;20493;-76
2022/06/28 19:57:34;;;;;;;2.67;1.17;;;;;;;22.66;86.79;100247.50;20731169;28;20061;-77
2022/06/28 20:07:36;;;;;;;5.18;1.38;;;;;;;22.59;82.03;100254.25;20733170;28;20416;-77
2022/06/28 20:17:38;;;;;;;3.20;1.20;;;;;;;22.30;87.82;100240.19;20799805;28;20059;-77
2022/06/28 20:27:40;;;;;;;4.47;2.05;;;;;;;22.21;83.35;100244.31;20814492;28;20053;-77
2022/06/28 20:37:42;;;;;;;4.47;1.42;;;;;;;22.33;74.94;100229.34;20812997;28;20049;-76
2022/06/28 20:47:43;;;;;;;5.20;1.60;;;;;;;22.24;82.30;100244.97;20813222;28;20488;-75
2022/06/28 20:57:45;;;;;;;4.45;1.58;;;;;;;22.06;86.12;100253.31;20810620;28;20057;-75
2022/06/28 21:07:46;;;;;;;3.10;1.38;;;;;;;21.76;91.14;100252.53;20810702;28;20417;-75
2022/06/28 21:17:48;;;;;;;3.60;1.30;;;;;;;21.64;88.74;100244.47;20739785;28;20058;-76
2022/06/28 21:27:49;;;;;;;3.45;1.73;;;;;;;21.64;87.21;100247.13;20729366;28;20073;-77
2022/06/28 21:37:51;;;;;;;3.03;1.35;;;;;;;21.72;79.46;100235.03;20728826;28;20058;-76
2022/06/28 21:47:53;;;;;;;4.10;1.30;;;;;;;21.73;79.11;100236.75;20728702;28;20046;-76
2022/06/28 21:57:58;;;;;;;4.20;1.42;;;;;;;21.72;80.41;100229.72;20728821;28;20081;-75
2022/06/28 22:08:00;;;;;;;3.28;1.35;;;;;;;21.50;82.07;100234.69;20741035;28;20049;-75
2022/06/28 22:18:02;;;;;;;3.97;1.17;;;;;;;21.55;77.54;100245.91;20797244;22;20135;-71
2022/06/28 22:28:04;;;;;;;2.95;1.30;;;;;;;21.49;77.27;100255.16;20832225;28;20053;-71
2022/06/28 22:38:06;;;;;;;5.45;1.30;;;;;;;21.36;80.03;100250.69;20830902;28;20052;-70
2022/06/28 22:48:07;;;;;;;7.15;1.23;;;;;;;21.33;77.29;100237.59;20830721;28;20100;-68
2022/06/28 22:58:09;;;;;;;3.50;1.65;;;;;;;21.17;78.86;100227.84;20829996;28;20100;-68
2022/06/28 23:08:10;;;;;;;6.63;1.30;;;;;;;21.19;73.42;100217.97;20827888;28;20046;-68
2022/06/28 23:18:12;;;;;;;5.13;1.33;;;;;;;21.22;72.08;100208.91;20827943;28;20107;-69
2022/06/28 23:28:13;;;;;;;3.45;1.20;;;;;;;21.14;72.15;100212.06;20827423;28;20053;-68
2022/06/28 23:38:15;;;;;;;3.78;1.00;;;;;;;21.07;73.02;100208.06;20826513;28;20057;-67
2022/06/28 23:48:20;;;;;;;4.13;1.45;;;;;;;20.97;77.12;100198.94;20826250;28;20091;-67
2022/06/28 23:58:25;;;;;;;4.25;1.10;;;;;;;20.69;82.96;100190.00;20825484;28;20057;-67
